Terminal Aerodrome Forecast
Issued by NWS

Home | Current Version | Previous Version | Text Only | Print | Product List | Glossary On
Versions: 1 2 3 4 5 6 7 8 9 10 11 12 13 14 15 16 17 18 19 20 21 22 23 24 25 26 27 28 29 30 31
000
FTUS45 KSLC 251949 AAA
TAF36U
TAF AMD
K36U 251949Z 2520/2618 VRB05KT P6SM -SHRA BKN025 BKN040
     FM252100 33008KT P6SM VCSH SCT030 BKN060
     FM260200 VRB04KT P6SM SCT060 BKN120=

USA.gov is the U.S. government's official web portal to all federal, state and local government web resources and services.